Time;durP1;ratioP1;P1;durP2;ratioP2;P2;SDS_P1;SDS_P2;PMS_P1;PMS_P2;Temp;Humidity;BMP_temperature;BMP_pressure;BME280_temperature;BME280_humidity;BME280_pressure;Samples;Min_cycle;Max_cycle;Signal;HPM_P1;HPM_P2
2022/01/17 00:02:24;;;;;;;65.25;26.38;;;;;;;5.00;98.75;103023.78;5015719;28;20034;-76
2022/01/17 00:04:50;;;;;;;62.42;25.55;;;;;;;4.99;98.71;103032.78;5012900;28;20026;-76
2022/01/17 00:07:16;;;;;;;52.70;24.50;;;;;;;4.99;98.69;103035.47;5026310;28;20025;-76
2022/01/17 00:09:42;;;;;;;66.15;27.00;;;;;;;5.01;98.71;103048.03;5023737;28;20381;-77
2022/01/17 00:12:09;;;;;;;57.20;26.13;;;;;;;5.02;98.79;103038.13;5019805;28;20040;-75
2022/01/17 00:14:39;;;;;;;66.90;25.52;;;;;;;5.01;98.53;103048.03;5016283;28;20025;-76
2022/01/17 00:17:29;;;;;;;52.70;24.42;;;;;;;5.03;98.74;103054.28;5024833;28;20456;-74
2022/01/17 00:19:56;;;;;;;56.72;26.30;;;;;;;5.02;98.90;103054.31;5013813;28;20044;-74
2022/01/17 00:22:22;;;;;;;59.08;24.88;;;;;;;5.02;98.42;103052.50;5020036;28;20033;-75
2022/01/17 00:24:48;;;;;;;63.22;27.02;;;;;;;5.03;98.33;103056.09;5029161;28;20095;-75
2022/01/17 00:27:14;;;;;;;64.53;25.25;;;;;;;5.02;98.38;103054.31;5028960;28;20076;-75
2022/01/17 00:29:40;;;;;;;62.70;25.88;;;;;;;5.00;98.57;103050.78;5017150;28;20025;-74
2022/01/17 00:32:05;;;;;;;60.67;26.15;;;;;;;5.03;98.45;103045.31;5027729;28;20029;-76
2022/01/17 00:34:31;;;;;;;65.82;26.58;;;;;;;5.03;98.48;103045.31;5023605;28;20025;-74
2022/01/17 00:36:56;;;;;;;63.63;26.65;;;;;;;5.00;98.58;103037.28;5013170;28;20033;-76
2022/01/17 00:39:22;;;;;;;65.93;25.58;;;;;;;5.00;98.55;103039.97;5028228;28;20025;-75
2022/01/17 00:41:47;;;;;;;53.78;24.95;;;;;;;4.98;98.63;103042.69;5022283;28;20048;-74
2022/01/17 00:44:15;;;;;;;68.03;24.92;;;;;;;5.00;98.80;103039.97;5025577;28;20465;-75
2022/01/17 00:46:41;;;;;;;55.50;24.35;;;;;;;4.99;98.54;103043.56;5012966;28;20029;-76
2022/01/17 00:49:06;;;;;;;63.95;25.27;;;;;;;5.00;98.71;103058.88;5027458;28;20378;-76
2022/01/17 00:51:32;;;;;;;56.97;22.25;;;;;;;4.99;98.47;103048.97;5015031;28;20041;-76
2022/01/17 00:53:57;;;;;;;55.25;21.55;;;;;;;5.01;98.45;103053.44;5027465;28;20022;-75
2022/01/17 00:56:23;;;;;;;55.75;24.73;;;;;;;5.01;98.85;103055.25;5025341;28;20514;-75
2022/01/17 00:58:49;;;;;;;49.03;22.02;;;;;;;5.00;98.75;103053.47;5025135;28;20087;-74
2022/01/17 01:01:15;;;;;;;48.67;22.33;;;;;;;5.02;98.58;103057.91;5013888;28;20026;-76
2022/01/17 01:03:40;;;;;;;52.47;22.27;;;;;;;5.04;98.49;103057.91;5037977;28;20029;-76
2022/01/17 01:06:06;;;;;;;64.82;23.58;;;;;;;5.02;98.66;103048.94;5023182;28;20056;-76
2022/01/17 01:08:31;;;;;;;49.13;20.95;;;;;;;5.03;98.32;103058.78;5029205;28;20026;-76
2022/01/17 01:10:57;;;;;;;56.05;21.92;;;;;;;5.01;98.58;103066.91;5010583;28;20392;-76
2022/01/17 01:13:23;;;;;;;44.53;21.80;;;;;;;5.02;98.11;103067.81;5017891;28;20021;-75
2022/01/17 01:29:02;;;;;;;38.78;19.08;;;;;;;5.04;98.61;103069.59;5022495;28;20036;-75
2022/01/17 01:31:41;;;;;;;42.70;19.58;;;;;;;5.04;98.29;103055.22;5021450;28;20021;-76
2022/01/17 01:34:08;;;;;;;46.03;17.92;;;;;;;5.03;98.53;103057.00;5008657;28;20049;-76
2022/01/17 01:36:34;;;;;;;42.67;18.25;;;;;;;5.02;98.15;103055.22;5011525;28;20025;-74
2022/01/17 01:38:59;;;;;;;39.55;18.92;;;;;;;5.01;98.57;103053.44;5021585;28;20124;-75
2022/01/17 01:41:25;;;;;;;44.33;18.45;;;;;;;5.02;98.03;103048.94;5015529;28;20109;-76
2022/01/17 01:43:50;;;;;;;44.90;18.67;;;;;;;4.98;98.08;103064.25;5021373;28;20576;-75
2022/01/17 01:46:19;;;;;;;37.13;17.58;;;;;;;4.92;97.88;103066.16;5022299;28;20037;-76
2022/01/17 01:48:44;;;;;;;38.15;17.25;;;;;;;4.86;97.65;103081.50;5025079;28;20434;-75
2022/01/17 01:51:09;;;;;;;37.13;14.90;;;;;;;4.79;98.01;103090.56;5015638;28;20064;-76
2022/01/17 01:53:36;;;;;;;37.42;14.93;;;;;;;4.72;97.61;103083.47;5028447;28;20099;-74
2022/01/17 01:56:02;;;;;;;33.42;14.77;;;;;;;4.64;97.57;103082.66;5027426;28;20060;-75
2022/01/17 01:58:27;;;;;;;43.80;15.60;;;;;;;4.58;97.49;103077.38;5027759;28;20033;-75
2022/01/17 02:00:54;;;;;;;32.88;14.02;;;;;;;4.50;97.86;103068.47;5016269;28;20021;-76
2022/01/17 02:03:20;;;;;;;27.70;13.40;;;;;;;4.43;98.06;103064.97;5027618;28;20033;-75
2022/01/17 02:05:46;;;;;;;32.97;13.95;;;;;;;4.39;97.92;103070.41;5018428;28;20076;-75
2022/01/17 02:08:12;;;;;;;31.80;15.00;;;;;;;4.35;97.78;103085.69;5015525;28;20024;-75
2022/01/17 02:10:38;;;;;;;34.50;13.85;;;;;;;4.31;97.83;103084.84;5025659;28;20028;-76
2022/01/17 02:13:03;;;;;;;31.45;13.82;;;;;;;4.25;97.82;103081.31;5024241;28;20029;-76
2022/01/17 02:15:29;;;;;;;30.58;14.60;;;;;;;4.18;97.90;103083.16;5016606;28;20418;-76
2022/01/17 02:17:55;;;;;;;33.95;15.73;;;;;;;4.16;97.95;103076.03;5025255;28;20048;-75
2022/01/17 02:20:23;;;;;;;36.78;14.23;;;;;;;4.08;98.11;103082.38;5022662;28;20041;-75
2022/01/17 02:22:50;;;;;;;30.50;13.35;;;;;;;4.06;97.86;103086.00;5023581;28;20080;-74
2022/01/17 02:25:15;;;;;;;34.00;12.88;;;;;;;4.01;98.02;103069.88;5027750;28;20021;-76
2022/01/17 02:27:41;;;;;;;35.13;13.10;;;;;;;4.00;97.82;103070.75;5021926;28;20140;-75
2022/01/17 02:30:07;;;;;;;28.42;11.10;;;;;;;3.94;97.93;103070.81;5024198;28;20021;-75
2022/01/17 02:32:33;;;;;;;32.15;12.13;;;;;;;3.93;97.73;103070.84;5021788;28;20054;-76
2022/01/17 02:35:12;;;;;;;29.45;11.85;;;;;;;3.88;97.95;103075.38;5026220;28;20336;-75
2022/01/17 02:37:37;;;;;;;30.30;11.38;;;;;;;3.82;97.64;103084.38;5019692;28;20076;-75
2022/01/17 02:40:03;;;;;;;30.48;12.40;;;;;;;3.80;98.16;103083.53;5024915;28;20053;-75
2022/01/17 02:42:28;;;;;;;20.55;10.52;;;;;;;3.77;97.99;103079.03;5016205;28;20108;-75
2022/01/17 02:44:59;;;;;;;29.17;11.68;;;;;;;3.75;98.33;103074.59;5019136;28;20037;-75
2022/01/17 02:47:25;;;;;;;32.40;11.93;;;;;;;3.71;98.43;103070.13;5018909;28;20026;-76
2022/01/17 02:49:50;;;;;;;34.75;12.73;;;;;;;3.69;98.23;103075.53;5025895;28;20155;-75
2022/01/17 02:52:19;;;;;;;29.65;11.52;;;;;;;3.65;98.13;103079.16;5014016;28;20053;-76
2022/01/17 02:54:44;;;;;;;25.55;10.63;;;;;;;3.62;98.41;103083.66;5027961;28;20021;-75
2022/01/17 02:57:09;;;;;;;33.97;10.50;;;;;;;3.60;98.51;103094.44;5012982;28;20049;-75
2022/01/17 02:59:35;;;;;;;24.83;11.05;;;;;;;3.60;98.44;103080.09;5025394;28;20029;-76
2022/01/17 03:02:00;;;;;;;27.02;11.00;;;;;;;3.57;98.58;103089.06;5019323;28;20026;-75
2022/01/17 03:04:27;;;;;;;33.85;11.80;;;;;;;3.53;98.22;103084.63;5029491;28;20392;-75
2022/01/17 03:06:52;;;;;;;31.40;12.20;;;;;;;3.49;98.56;103078.34;5028940;28;20033;-75
2022/01/17 03:09:18;;;;;;;33.97;12.95;;;;;;;3.42;98.66;103065.88;5030739;28;20032;-75
2022/01/17 03:11:44;;;;;;;34.88;12.20;;;;;;;3.42;98.58;103071.25;5027167;28;20033;-75
2022/01/17 03:14:09;;;;;;;32.80;12.60;;;;;;;3.40;98.36;103073.03;5027863;28;20389;-75
2022/01/17 03:16:39;;;;;;;35.60;11.27;;;;;;;3.38;98.51;103073.97;5011764;28;20029;-75
2022/01/17 03:19:04;;;;;;;34.85;12.63;;;;;;;3.38;98.64;103080.25;5027344;28;20030;-74
2022/01/17 03:21:32;;;;;;;30.15;11.07;;;;;;;3.37;98.42;103075.78;5022575;28;20025;-75
2022/01/17 03:23:57;;;;;;;33.92;13.75;;;;;;;3.33;98.69;103058.75;5030906;28;20532;-74
2022/01/17 03:26:23;;;;;;;28.70;11.18;;;;;;;3.32;98.71;103066.84;5030079;28;20039;-75
2022/01/17 03:28:48;;;;;;;26.48;11.30;;;;;;;3.29;98.36;103058.78;5025001;28;20211;-75
2022/01/17 03:31:13;;;;;;;24.05;10.90;;;;;;;3.26;98.50;103062.41;5022468;28;20080;-75
2022/01/17 03:33:39;;;;;;;31.75;11.70;;;;;;;3.24;98.57;103072.25;5031032;28;20168;-76
2022/01/17 03:36:05;;;;;;;22.02;11.15;;;;;;;3.23;98.84;103078.53;5022233;28;20025;-76
2022/01/17 03:38:32;;;;;;;28.45;12.65;;;;;;;3.23;98.77;103078.53;5031063;28;20025;-75
2022/01/17 03:40:59;;;;;;;25.00;10.93;;;;;;;3.21;98.92;103079.44;5019482;28;20036;-75
2022/01/17 03:43:25;;;;;;;21.05;9.95;;;;;;;3.17;98.86;103077.66;5027270;28;20029;-75
2022/01/17 03:45:50;;;;;;;29.65;10.52;;;;;;;3.17;98.82;103074.97;5024542;28;20124;-75
2022/01/17 03:48:17;;;;;;;25.67;10.95;;;;;;;3.16;99.12;103082.16;5036311;28;20028;-76
2022/01/17 03:50:43;;;;;;;25.85;10.43;;;;;;;3.15;98.77;103083.06;5024036;28;20034;-76
2022/01/17 03:53:09;;;;;;;30.70;13.18;;;;;;;3.13;98.87;103079.50;5017754;28;20033;-76
2022/01/17 03:55:35;;;;;;;30.13;9.90;;;;;;;3.13;98.83;103084.88;5023888;28;20050;-74
2022/01/17 03:58:05;;;;;;;25.05;10.70;;;;;;;3.17;99.10;103074.97;5029344;28;20024;-75
2022/01/17 04:00:37;;;;;;;28.02;10.18;;;;;;;3.17;98.80;103073.22;5023350;28;20549;-75
2022/01/17 04:03:02;;;;;;;19.33;8.90;;;;;;;3.17;98.96;103069.59;5029290;28;20053;-75
2022/01/17 04:05:27;;;;;;;30.55;10.20;;;;;;;3.19;98.90;103081.25;5026236;28;20148;-74
2022/01/17 04:07:53;;;;;;;25.38;9.55;;;;;;;3.18;99.25;103079.47;5026146;28;20529;-76
2022/01/17 04:10:18;;;;;;;26.63;8.50;;;;;;;3.20;98.93;103078.56;5026171;28;20048;-74
2022/01/17 04:12:44;;;;;;;19.63;8.77;;;;;;;3.18;98.85;103076.78;5029517;28;20021;-74
2022/01/17 04:15:11;;;;;;;21.40;9.05;;;;;;;3.23;98.63;103088.41;5024458;28;20037;-74
2022/01/17 04:17:36;;;;;;;16.73;7.75;;;;;;;3.20;98.60;103083.94;5024758;28;20029;-75
2022/01/17 04:20:08;;;;;;;23.52;9.00;;;;;;;3.20;98.42;103089.31;5016721;28;20042;-76
2022/01/17 04:22:39;;;;;;;25.10;7.10;;;;;;;3.17;98.35;103086.66;5028947;28;20025;-76
2022/01/17 04:25:06;;;;;;;26.20;7.40;;;;;;;3.18;98.54;103092.94;5017853;28;20105;-75
2022/01/17 04:27:32;;;;;;;20.75;6.78;;;;;;;3.14;98.26;103100.13;5014659;28;20041;-75
2022/01/17 04:29:57;;;;;;;21.88;7.65;;;;;;;3.09;97.97;103096.56;5026289;28;20501;-75
2022/01/17 04:32:23;;;;;;;17.13;6.65;;;;;;;3.07;98.10;103098.34;5016853;28;20410;-75
2022/01/17 04:34:48;;;;;;;18.48;6.22;;;;;;;3.07;98.21;103104.59;5028672;28;20029;-76
2022/01/17 04:37:13;;;;;;;20.17;6.07;;;;;;;3.06;98.24;103107.31;5027438;28;20025;-75
2022/01/17 04:39:38;;;;;;;20.25;6.22;;;;;;;3.04;98.07;103101.06;5028221;28;20021;-76
2022/01/17 04:42:11;;;;;;;13.68;6.15;;;;;;;3.01;98.43;103093.88;5009564;28;20755;-74
2022/01/17 04:47:20;;;;;;;20.33;5.75;;;;;;;3.02;98.42;103094.78;5018437;28;20080;-76
2022/01/17 04:49:46;;;;;;;17.77;5.38;;;;;;;3.01;98.07;103095.69;5023750;28;20076;-74
2022/01/17 04:52:13;;;;;;;21.35;5.32;;;;;;;3.01;98.32;103093.00;5014585;28;20029;-76
2022/01/17 04:54:41;;;;;;;11.40;4.93;;;;;;;3.03;98.58;103094.81;5024385;28;20552;-75
2022/01/17 04:57:08;;;;;;;18.60;6.22;;;;;;;3.02;98.32;103090.28;5025639;28;20391;-75
2022/01/17 04:59:34;;;;;;;20.13;5.32;;;;;;;3.01;98.27;103099.28;5024101;28;20072;-76
2022/01/17 05:02:00;;;;;;;9.35;4.68;;;;;;;3.00;98.21;103110.94;5025417;28;20105;-75
2022/01/17 05:04:25;;;;;;;16.65;5.95;;;;;;;2.99;98.01;103111.84;5016706;28;20074;-76
2022/01/17 05:06:50;;;;;;;19.15;6.07;;;;;;;2.96;98.15;103100.19;5014155;28;20030;-74
2022/01/17 05:09:15;;;;;;;16.63;5.95;;;;;;;2.95;98.29;103102.00;5027569;28;20018;-76
2022/01/17 05:11:42;;;;;;;14.52;5.45;;;;;;;2.97;98.32;103110.03;5028054;28;20059;-75
2022/01/17 05:14:08;;;;;;;17.50;4.38;;;;;;;2.96;97.89;103125.28;5025771;28;20122;-76
2022/01/17 05:16:38;;;;;;;14.93;5.80;;;;;;;2.97;98.13;103132.44;5011711;28;20697;-75
2022/01/17 05:21:47;;;;;;;19.98;5.90;;;;;;;2.93;98.00;103121.72;5007598;28;20072;-74
2022/01/17 05:24:12;;;;;;;18.98;5.90;;;;;;;2.93;98.08;103129.78;5018614;28;20121;-75
2022/01/17 05:26:38;;;;;;;18.98;5.75;;;;;;;2.92;98.10;103133.38;5019404;28;20519;-75
2022/01/17 05:29:03;;;;;;;16.33;5.38;;;;;;;2.90;98.04;103136.06;5025652;28;20045;-75
2022/01/17 05:31:29;;;;;;;17.02;6.05;;;;;;;2.90;98.02;103124.44;5017418;28;20140;-74
2022/01/17 05:33:54;;;;;;;19.60;6.63;;;;;;;2.90;98.17;103130.69;5028942;28;20037;-75
2022/01/17 05:36:19;;;;;;;15.35;6.35;;;;;;;2.89;98.39;103134.28;5018601;28;20045;-75
2022/01/17 05:38:44;;;;;;;15.13;6.13;;;;;;;2.86;98.25;103128.91;5027607;28;20029;-75
2022/01/17 05:41:10;;;;;;;16.60;5.13;;;;;;;2.83;98.13;103136.09;5013949;28;20476;-75
2022/01/17 05:43:35;;;;;;;17.10;5.90;;;;;;;2.80;98.03;103158.50;5026438;28;20029;-75
2022/01/17 05:46:00;;;;;;;13.73;5.70;;;;;;;2.75;98.35;103142.41;5010385;28;20025;-76
2022/01/17 05:48:26;;;;;;;17.63;6.10;;;;;;;2.75;98.07;103145.09;5024150;28;20028;-75
2022/01/17 05:50:51;;;;;;;14.50;5.50;;;;;;;2.74;98.39;103131.63;5021998;28;20457;-75
2022/01/17 05:53:16;;;;;;;14.77;7.10;;;;;;;2.80;98.68;103140.59;5021916;28;20026;-75
2022/01/17 05:55:42;;;;;;;16.85;6.38;;;;;;;2.80;98.59;103128.94;5026814;28;20136;-74
2022/01/17 05:58:07;;;;;;;13.40;7.00;;;;;;;2.80;98.62;103124.47;5027987;28;20025;-75
2022/01/17 06:00:32;;;;;;;18.88;6.20;;;;;;;2.89;99.15;103145.03;5020453;28;20025;-75
2022/01/17 06:02:58;;;;;;;18.00;7.00;;;;;;;2.94;98.97;103147.72;5025264;28;20026;-75
2022/01/17 06:05:23;;;;;;;17.85;6.63;;;;;;;2.94;98.84;103153.09;5024206;28;20496;-75
2022/01/17 06:07:48;;;;;;;18.85;6.78;;;;;;;2.95;98.87;103149.50;5026210;28;20136;-76
2022/01/17 06:10:14;;;;;;;16.67;7.43;;;;;;;2.93;98.77;103135.16;5027174;28;20391;-74
2022/01/17 06:12:39;;;;;;;14.73;6.20;;;;;;;2.92;98.44;103147.69;5027768;28;20029;-75
2022/01/17 06:15:05;;;;;;;20.30;6.63;;;;;;;2.86;98.55;103153.09;5007379;28;20022;-75
2022/01/17 06:17:30;;;;;;;16.17;7.05;;;;;;;2.83;98.52;103160.28;5011967;28;20034;-75
2022/01/17 06:19:55;;;;;;;16.40;6.57;;;;;;;2.78;98.30;103157.59;5017152;28;20541;-75
2022/01/17 06:22:20;;;;;;;23.83;8.13;;;;;;;2.74;98.45;103153.13;5022959;28;20062;-74
2022/01/17 06:24:46;;;;;;;17.98;8.27;;;;;;;2.69;98.52;103157.63;5022265;28;20136;-75
2022/01/17 06:27:11;;;;;;;18.55;8.05;;;;;;;2.61;98.07;103154.97;5020306;28;20048;-75
2022/01/17 06:29:36;;;;;;;23.73;9.38;;;;;;;2.58;98.33;103159.47;5022440;28;20022;-75
2022/01/17 06:32:04;;;;;;;23.25;10.48;;;;;;;2.54;98.63;103163.94;5015916;28;20030;-75
2022/01/17 06:34:29;;;;;;;24.90;9.38;;;;;;;2.51;98.62;103162.13;5025108;28;20071;-75
2022/01/17 06:36:55;;;;;;;30.33;11.38;;;;;;;2.54;99.05;103167.50;5024475;28;20432;-76
2022/01/17 06:39:20;;;;;;;21.85;10.45;;;;;;;2.63;99.24;103179.16;5029923;28;20087;-75
2022/01/17 06:41:45;;;;;;;29.63;11.50;;;;;;;2.68;99.08;103170.19;5017320;28;20427;-75
2022/01/17 06:44:10;;;;;;;25.90;11.35;;;;;;;2.74;99.37;103177.31;5024877;28;20025;-75
2022/01/17 06:46:36;;;;;;;23.23;11.57;;;;;;;2.80;99.20;103175.53;5018747;28;20128;-74
2022/01/17 06:49:02;;;;;;;25.95;10.70;;;;;;;2.86;99.44;103168.34;5029783;28;20369;-73
2022/01/17 06:51:28;;;;;;;34.13;12.32;;;;;;;2.89;99.21;103160.25;5021557;28;20025;-74
2022/01/17 06:53:53;;;;;;;21.08;10.38;;;;;;;2.91;98.83;103174.59;5031294;28;20151;-76
2022/01/17 06:56:19;;;;;;;23.80;11.35;;;;;;;2.90;98.97;103187.16;5028897;28;20053;-75
2022/01/17 06:58:45;;;;;;;29.23;10.98;;;;;;;2.85;98.86;103190.75;5027632;28;20033;-74
2022/01/17 07:01:11;;;;;;;25.92;11.55;;;;;;;2.90;99.13;103207.78;5020635;28;20085;-75
2022/01/17 07:03:37;;;;;;;24.52;11.80;;;;;;;2.90;98.64;103205.09;5025171;28;20037;-75
2022/01/17 07:06:03;;;;;;;24.52;10.80;;;;;;;2.89;98.91;103200.56;5029442;28;20052;-76
2022/01/17 07:08:29;;;;;;;25.75;11.80;;;;;;;2.87;98.51;103219.41;5030993;28;20362;-74
2022/01/17 07:10:54;;;;;;;30.58;11.43;;;;;;;2.88;98.87;103225.69;5030072;28;20056;-75
2022/01/17 07:13:19;;;;;;;33.15;11.98;;;;;;;2.86;98.82;103201.50;5024013;28;20030;-75
2022/01/17 07:15:45;;;;;;;28.08;12.07;;;;;;;2.86;99.02;103197.91;5010708;28;20387;-76
2022/01/17 07:18:12;;;;;;;35.20;12.57;;;;;;;2.85;98.81;103188.97;5018350;28;20036;-75
2022/01/17 07:20:37;;;;;;;23.33;12.65;;;;;;;2.84;98.54;103180.88;5025917;28;20029;-76
2022/01/17 07:23:03;;;;;;;31.48;12.55;;;;;;;2.83;98.69;103171.03;5031046;28;20075;-74
2022/01/17 07:25:28;;;;;;;29.73;13.10;;;;;;;2.81;98.74;103171.06;5028927;28;20281;-75
2022/01/17 07:27:55;;;;;;;32.47;14.98;;;;;;;2.80;99.04;103162.09;5028476;28;20447;-74
2022/01/17 07:30:21;;;;;;;30.55;14.02;;;;;;;2.77;98.82;103167.47;5026989;28;20082;-76
2022/01/17 07:32:46;;;;;;;38.92;15.18;;;;;;;2.75;98.83;103177.34;5028807;28;20057;-75
2022/01/17 07:35:11;;;;;;;32.83;14.73;;;;;;;2.73;98.90;103184.50;5029443;28;20060;-75
2022/01/17 07:37:37;;;;;;;34.08;14.90;;;;;;;2.71;98.76;103190.78;5023814;28;20029;-75
2022/01/17 07:40:05;;;;;;;32.20;14.57;;;;;;;2.72;99.09;103197.94;5028728;28;20294;-74
2022/01/17 07:42:30;;;;;;;37.13;16.25;;;;;;;2.72;99.18;103197.94;5018283;28;20550;-76
2022/01/17 07:44:57;;;;;;;41.92;15.25;;;;;;;2.71;99.02;103199.75;5022232;28;20037;-74
2022/01/17 07:47:41;;;;;;;38.38;16.00;;;;;;;2.71;99.17;103201.53;5022874;28;20032;-74
2022/01/17 07:50:12;;;;;;;31.90;15.70;;;;;;;2.69;99.06;103206.00;5024690;28;20026;-75
2022/01/17 07:52:37;;;;;;;36.20;14.93;;;;;;;2.68;99.26;103215.88;5018085;28;20484;-75
2022/01/17 07:55:03;;;;;;;34.08;14.18;;;;;;;2.69;99.41;103216.75;5027970;28;20021;-75
2022/01/17 07:57:29;;;;;;;33.42;15.52;;;;;;;2.71;99.34;103231.09;5014437;28;20042;-76
2022/01/17 07:59:54;;;;;;;35.00;15.68;;;;;;;2.68;99.30;103229.31;5024313;28;20053;-75
2022/01/17 08:02:20;;;;;;;35.03;16.38;;;;;;;2.75;99.38;103232.84;5027380;28;20064;-74
2022/01/17 08:04:45;;;;;;;36.95;15.55;;;;;;;2.78;99.32;103238.25;5029628;28;20034;-74
2022/01/17 08:07:10;;;;;;;45.38;16.52;;;;;;;2.80;99.59;103250.81;5014850;28;20482;-75
2022/01/17 08:09:35;;;;;;;36.47;15.50;;;;;;;2.84;99.57;103245.41;5030076;28;20021;-75
2022/01/17 08:12:03;;;;;;;40.88;16.45;;;;;;;2.85;99.65;103255.28;5015570;28;20041;-76
2022/01/17 08:14:28;;;;;;;37.70;16.95;;;;;;;2.86;99.70;103239.13;5008692;28;20560;-76
2022/01/17 08:16:54;;;;;;;36.28;15.20;;;;;;;2.92;99.71;103238.22;5011253;28;20458;-75
2022/01/17 08:19:21;;;;;;;41.38;17.17;;;;;;;2.97;99.59;103241.78;5026996;28;20022;-75
2022/01/17 08:21:47;;;;;;;35.10;15.52;;;;;;;3.02;99.86;103240.88;5026882;28;20033;-75
2022/01/17 08:24:13;;;;;;;36.95;15.88;;;;;;;3.09;99.81;103240.88;5030178;28;20032;-74
2022/01/17 08:26:42;;;;;;;44.78;17.13;;;;;;;3.20;100.00;103245.31;5029243;28;20389;-75
2022/01/17 08:29:09;;;;;;;44.22;16.95;;;;;;;3.28;99.83;103248.00;5026342;28;20088;-75
2022/01/17 08:31:34;;;;;;;41.30;16.92;;;;;;;3.33;99.83;103251.56;5019519;28;20048;-74
2022/01/17 08:33:59;;;;;;;36.38;15.68;;;;;;;3.37;100.00;103247.06;5022433;28;20029;-75
2022/01/17 08:36:25;;;;;;;45.70;18.85;;;;;;;3.41;99.66;103257.81;5024932;28;20456;-74
2022/01/17 08:38:50;;;;;;;37.90;16.10;;;;;;;3.47;99.53;103251.50;5027632;28;20505;-74
2022/01/17 08:41:18;;;;;;;35.80;15.93;;;;;;;3.51;99.72;103254.19;5015132;28;20091;-76
2022/01/17 08:43:43;;;;;;;50.20;18.20;;;;;;;3.56;99.68;103246.97;5028430;28;20032;-74
2022/01/17 08:46:08;;;;;;;44.05;18.17;;;;;;;3.58;99.57;103233.50;5018496;28;20536;-73
2022/01/17 08:48:34;;;;;;;33.60;16.45;;;;;;;3.63;99.37;103228.97;5028046;28;20030;-74
2022/01/17 08:50:59;;;;;;;38.60;17.10;;;;;;;3.68;99.34;103226.25;5022276;28;20030;-75
2022/01/17 08:53:24;;;;;;;45.10;17.42;;;;;;;3.74;99.61;103242.41;5023759;28;20030;-75
2022/01/17 08:55:50;;;;;;;37.55;16.77;;;;;;;3.76;99.25;103238.78;5011006;28;20045;-74
2022/01/17 08:58:16;;;;;;;40.92;17.20;;;;;;;3.80;99.36;103242.38;5025204;28;20069;-75
2022/01/17 09:00:43;;;;;;;38.40;16.80;;;;;;;3.81;99.23;103245.03;5025547;28;20049;-75
2022/01/17 09:03:10;;;;;;;48.00;16.88;;;;;;;3.86;99.27;103242.31;5026422;28;20031;-75
2022/01/17 09:05:37;;;;;;;35.85;16.25;;;;;;;3.93;99.04;103245.88;5018919;28;20112;-75
2022/01/17 09:08:04;;;;;;;42.25;17.55;;;;;;;3.95;99.02;103255.72;5040314;28;20564;-75
2022/01/17 09:10:30;;;;;;;43.95;15.80;;;;;;;3.97;99.18;103243.16;5017151;28;20057;-73
2022/01/17 09:12:56;;;;;;;41.70;16.92;;;;;;;4.00;98.99;103251.19;5021886;28;20251;-74
2022/01/17 09:15:22;;;;;;;42.80;16.73;;;;;;;4.05;99.18;103272.72;5022372;28;20022;-75
2022/01/17 09:17:47;;;;;;;41.17;15.25;;;;;;;4.08;99.06;103270.91;5024823;28;20144;-74
2022/01/17 09:20:13;;;;;;;34.83;15.45;;;;;;;4.14;99.06;103285.25;5028143;28;20041;-76
2022/01/17 09:22:38;;;;;;;38.63;16.20;;;;;;;4.17;98.82;103288.81;5019534;28;20040;-75
2022/01/17 09:25:06;;;;;;;33.92;14.63;;;;;;;4.22;99.15;103300.47;5023737;28;20032;-76
2022/01/17 09:27:35;;;;;;;43.10;15.75;;;;;;;4.28;98.70;103303.09;5028917;28;20029;-75
2022/01/17 09:30:07;;;;;;;43.83;16.27;;;;;;;4.36;99.12;103303.06;5023869;28;20085;-75
2022/01/17 09:32:32;;;;;;;30.42;14.52;;;;;;;4.42;98.96;103294.91;5021499;28;20099;-74
2022/01/17 09:34:57;;;;;;;40.45;14.50;;;;;;;4.47;98.67;103301.16;5028629;28;20033;-74
2022/01/17 09:37:23;;;;;;;38.90;14.82;;;;;;;4.55;99.08;103299.31;5025624;28;20036;-74
2022/01/17 09:39:48;;;;;;;44.55;15.82;;;;;;;4.58;98.58;103293.91;5022763;28;20485;-75
2022/01/17 09:42:14;;;;;;;34.70;14.07;;;;;;;4.64;98.42;103287.56;5015060;28;20341;-76
2022/01/17 09:44:40;;;;;;;38.55;14.93;;;;;;;4.66;98.33;103288.44;5022864;28;20040;-74
2022/01/17 09:47:07;;;;;;;26.77;11.90;;;;;;;4.71;97.93;103297.41;5014641;28;20096;-75
2022/01/17 09:49:37;;;;;;;36.42;13.70;;;;;;;4.74;97.97;103299.16;5028360;28;20496;-75
2022/01/17 09:54:52;;;;;;;30.30;11.02;;;;;;;4.83;97.69;103329.66;5025383;28;20544;-75
2022/01/17 09:57:19;;;;;;;30.38;11.00;;;;;;;4.86;97.60;103332.31;5025789;28;20063;-74
2022/01/17 09:59:45;;;;;;;30.52;11.45;;;;;;;4.90;97.73;103335.00;5022858;28;20045;-75
2022/01/17 10:02:12;;;;;;;31.42;11.70;;;;;;;4.91;97.55;103347.56;5024734;28;20044;-76
2022/01/17 10:04:38;;;;;;;31.05;11.13;;;;;;;4.95;97.42;103343.94;5027574;28;20359;-76
2022/01/17 10:07:05;;;;;;;24.80;9.25;;;;;;;4.96;97.27;103332.25;5013685;28;20029;-75
2022/01/17 10:09:33;;;;;;;26.40;9.52;;;;;;;4.98;97.30;103347.50;5027628;28;20017;-74
2022/01/17 10:12:10;;;;;;;28.10;9.95;;;;;;;5.00;97.17;103331.31;5027158;28;20017;-75
2022/01/17 10:14:39;;;;;;;28.33;10.30;;;;;;;5.03;97.06;103326.75;5021442;28;20068;-75
2022/01/17 10:17:16;;;;;;;24.52;9.70;;;;;;;5.04;96.83;103338.47;5010847;28;20401;-74
2022/01/17 10:19:43;;;;;;;30.33;9.48;;;;;;;5.06;96.56;103336.63;5015314;28;20423;-75
2022/01/17 10:22:16;;;;;;;31.17;10.20;;;;;;;5.06;96.75;103323.16;5025534;28;20021;-76
2022/01/17 10:25:02;;;;;;;36.22;10.35;;;;;;;5.09;96.71;103329.41;5009517;28;20026;-75
2022/01/17 10:27:57;;;;;;;30.60;10.25;;;;;;;5.12;96.49;103336.56;5022893;28;20053;-75
2022/01/17 10:30:44;;;;;;;28.00;9.77;;;;;;;5.17;96.52;103341.91;5015118;28;20043;-74
2022/01/17 10:35:58;;;;;;;33.25;7.90;;;;;;;5.22;96.64;103353.56;5018773;28;20408;-75
2022/01/17 10:38:27;;;;;;;22.60;8.60;;;;;;;5.22;96.22;103351.78;5027384;28;20017;-74
2022/01/17 10:41:02;;;;;;;24.25;8.05;;;;;;;5.25;96.51;103340.06;5017174;28;20033;-75
2022/01/17 10:43:38;;;;;;;24.75;7.68;;;;;;;5.27;96.10;103343.63;5024242;28;20454;-75
2022/01/17 10:46:06;;;;;;;24.40;7.97;;;;;;;5.30;96.14;103352.59;5015770;28;20060;-76
2022/01/17 10:48:37;;;;;;;24.45;7.30;;;;;;;5.33;95.71;103352.56;5022326;28;20040;-74
2022/01/17 10:51:04;;;;;;;28.02;8.43;;;;;;;5.35;96.10;103349.84;5021531;28;20149;-76
2022/01/17 10:53:29;;;;;;;27.60;7.28;;;;;;;5.37;95.77;103348.03;5022752;28;20366;-75
2022/01/17 10:55:57;;;;;;;18.10;6.53;;;;;;;5.40;95.75;103361.47;5021558;28;20049;-74
2022/01/17 10:58:28;;;;;;;21.25;7.47;;;;;;;5.46;95.83;103360.53;5020827;28;20038;-74
2022/01/17 11:00:56;;;;;;;33.17;8.48;;;;;;;5.48;95.54;103364.09;5021141;28;20021;-76
2022/01/17 11:03:27;;;;;;;24.63;7.60;;;;;;;5.53;95.46;103365.84;5016575;28;20078;-74
2022/01/17 11:05:55;;;;;;;15.90;6.85;;;;;;;5.55;94.97;103377.53;5021112;28;20057;-76
2022/01/17 11:08:23;;;;;;;18.58;6.57;;;;;;;5.59;95.25;103376.56;5016718;28;20091;-76
2022/01/17 11:10:52;;;;;;;20.83;6.03;;;;;;;5.66;94.75;103376.53;5026218;28;20029;-75
2022/01/17 11:13:19;;;;;;;19.95;6.25;;;;;;;5.68;94.75;103382.78;5025345;28;20492;-75
2022/01/17 11:15:49;;;;;;;27.73;5.70;;;;;;;5.71;94.88;103385.47;5019606;28;20021;-75
2022/01/17 11:18:20;;;;;;;21.33;7.72;;;;;;;5.74;94.04;103377.34;5013749;28;20531;-75
2022/01/17 11:20:46;;;;;;;25.60;5.90;;;;;;;5.80;94.65;103383.53;5027691;28;20706;-74
2022/01/17 11:23:11;;;;;;;25.27;7.30;;;;;;;5.86;94.49;103367.25;5029499;28;20087;-76
2022/01/17 11:25:44;;;;;;;17.73;5.65;;;;;;;5.89;93.99;103364.53;5030314;28;20591;-75
2022/01/17 11:28:11;;;;;;;26.77;6.15;;;;;;;5.94;94.05;103371.72;5022132;28;20450;-74
2022/01/17 11:30:39;;;;;;;13.95;4.47;;;;;;;5.96;93.92;103362.66;5028725;28;20389;-76
2022/01/17 11:33:09;;;;;;;21.52;5.45;;;;;;;6.01;93.91;103359.91;5028802;28;20511;-75
2022/01/17 11:35:41;;;;;;;21.38;5.95;;;;;;;6.03;94.20;103348.19;5028674;28;20032;-75
2022/01/17 11:38:11;;;;;;;18.85;5.18;;;;;;;6.08;94.36;103348.13;5026639;28;20102;-74
2022/01/17 11:40:39;;;;;;;24.85;5.43;;;;;;;6.11;93.96;103354.38;5022781;28;20501;-75
2022/01/17 11:43:34;;;;;;;20.42;5.32;;;;;;;6.17;94.26;103366.03;5024243;28;20021;-74